Portada
METAR-TAF:

METAR-TAF

Aeropuertos :

Aeropuerto de Rabat-Salé

Rabat, Marruecos

latitud: 34-03N, longitud: 006-46W, altitud: 84 m

Observación

El informe se hizo hace 14 minutos, a las 23:00 UTC
Viento 2 kt con dirección variable
Temperatura 9°C
Humedad 87%
Presión 1027 hPa
Visibilidad 10 km o más
sin nubes por debajo de 1500 m y sin presencia de cumulonimbus.

METAR: GMME 152300Z VRB02KT CAVOK 09/07 Q1027 NOSIG

Hora: 23:14 (23:14 UTC)

Pronóstico

El informe se hizo hace 6 horas y 14 minutos, a las 17:00 UTC
Pronóstico válido del 15 a las 18 UTC al 16 a las 24 UTC
Viento 6 kt del noreste
Visibilidad: 8000 m
Probabilidad 30% :
Temporalmente
del 16 a las 04 UTC al 16 a las 07 UTC
Visibilidad: 3000 m
neblina

TAF: GMME 151700Z 1518/1624 05006KT 8000 NSC PROB30 TEMPO 1604/1607 3000 BR

Observaciones y pronósticos meteorológicos de más de 4000 aeropuertos (mensajes METAR y TAF).

Los puntos amarillos y rojos representan las estaciones disponibles.

Ponga el ratón en el punto deseado para ver el nombre de la estación.

Haga clic para ver las observaciones y los pronósticos meteorológicos.

Para cambiar el mapa : haga clic en los botones verdes con una cruz de color negro para hacer un zoom, en el botón verde con un guión para alejar o en las flechas verdes para mapas adyacentes.


METAR-TAF: